Time;durP1;ratioP1;P1;durP2;ratioP2;P2;SDS_P1;SDS_P2;PMS_P1;PMS_P2;Temp;Humidity;BMP_temperature;BMP_pressure;BME280_temperature;BME280_humidity;BME280_pressure;Samples;Min_cycle;Max_cycle;Signal;HPM_P1;HPM_P2
2023/07/17 00:01:16;;;;;;;;;31.60;29.60;;;;;28.42;100.00;98799.94;7733987;22;96472;-67
2023/07/17 00:04:20;;;;;;;;;32.40;30.00;;;;;28.34;100.00;98798.09;7734957;22;96382;-68
2023/07/17 00:07:23;;;;;;;;;31.25;29.75;;;;;28.22;100.00;98795.25;7734918;22;96344;-67
2023/07/17 00:10:26;;;;;;;;;31.00;29.25;;;;;28.04;100.00;98791.78;7734655;22;96533;-67
2023/07/17 00:13:29;;;;;;;;;32.00;30.00;;;;;27.94;100.00;98795.78;7733115;22;96399;-67
2023/07/17 00:16:34;;;;;;;;;30.00;28.40;;;;;27.83;100.00;98790.97;7732461;22;96616;-67
2023/07/17 00:19:39;;;;;;;;;26.25;25.25;;;;;27.74;100.00;98793.81;7734172;22;97504;-68
2023/07/17 00:22:42;;;;;;;;;27.00;24.50;;;;;27.59;100.00;98777.78;7735645;22;96914;-68
2023/07/17 00:25:45;;;;;;;;;29.00;28.00;;;;;27.69;100.00;98796.78;7735073;22;96542;-68
2023/07/17 00:28:49;;;;;;;;;26.00;26.00;;;;;27.68;100.00;98803.47;7735376;22;96632;-68
2023/07/17 00:31:54;;;;;;;;;27.60;26.00;;;;;27.56;100.00;98789.56;7736557;22;96250;-68
2023/07/17 00:34:57;;;;;;;;;29.40;26.60;;;;;27.53;100.00;98792.97;7738226;22;96308;-67
2023/07/17 00:38:00;;;;;;;;;28.00;28.00;;;;;27.43;100.00;98801.63;7684064;22;98799;-67
2023/07/17 00:41:04;;;;;;;;;29.60;28.00;;;;;27.37;100.00;98803.78;7735282;22;96409;-67
2023/07/17 00:44:07;;;;;;;;;30.20;27.60;;;;;27.36;100.00;98810.47;7737231;22;96422;-67
2023/07/17 00:47:12;;;;;;;;;28.75;27.00;;;;;27.37;100.00;98806.53;7737141;22;96313;-67
2023/07/17 00:50:15;;;;;;;;;32.00;28.20;;;;;27.30;100.00;98802.69;7737963;22;96238;-67
2023/07/17 00:53:18;;;;;;;;;27.20;25.60;;;;;27.26;100.00;98793.44;7736024;22;96630;-67
2023/07/17 00:56:22;;;;;;;;;28.40;27.00;;;;;27.17;100.00;98794.28;7709146;22;96620;-67
2023/07/17 00:59:27;;;;;;;;;29.00;27.00;;;;;27.09;100.00;98778.53;7735968;22;96331;-67
2023/07/17 01:02:32;;;;;;;;;27.80;27.00;;;;;27.21;100.00;98782.53;7738073;22;96779;-67
2023/07/17 01:05:36;;;;;;;;;29.25;28.00;;;;;27.20;100.00;98773.44;7737437;22;96992;-66
2023/07/17 01:08:40;;;;;;;;;31.00;29.40;;;;;27.12;100.00;98760.47;7709472;22;96561;-67
2023/07/17 01:11:43;;;;;;;;;28.60;28.00;;;;;27.24;100.00;98771.63;7709171;22;96588;-66
2023/07/17 01:14:47;;;;;;;;;28.40;27.00;;;;;27.29;100.00;98779.72;7709333;22;97102;-67
2023/07/17 01:17:52;;;;;;;;;29.60;28.00;;;;;27.32;100.00;98778.25;7709459;22;98253;-67
2023/07/17 01:20:57;;;;;;;;;29.80;27.20;;;;;27.29;100.00;98776.16;7735977;22;96265;-67
2023/07/17 01:24:02;;;;;;;;;30.40;28.40;;;;;27.30;100.00;98777.78;7709545;22;96809;-67
2023/07/17 01:27:05;;;;;;;;;34.00;30.00;;;;;27.31;100.00;98779.41;7709252;22;96626;-67
2023/07/17 01:30:13;;;;;;;;;28.00;26.40;;;;;27.29;100.00;98779.72;7736968;22;96250;-66
2023/07/17 01:33:16;;;;;;;;;33.40;29.40;;;;;27.29;100.00;98778.91;7708192;22;96747;-67
2023/07/17 01:36:19;;;;;;;;;32.25;29.00;;;;;27.26;100.00;98779.59;7709462;22;98399;-67
2023/07/17 01:39:25;;;;;;;;;33.20;30.00;;;;;27.26;100.00;98782.38;7737499;22;96746;-66
2023/07/17 01:42:28;;;;;;;;;29.00;28.00;;;;;27.24;100.00;98776.34;7710050;22;98611;-66
2023/07/17 01:45:31;;;;;;;;;30.00;28.00;;;;;27.21;100.00;98780.59;7736788;22;96233;-66
2023/07/17 01:48:34;;;;;;;;;30.25;28.25;;;;;27.19;100.00;98788.41;7709665;22;96608;-66
2023/07/17 01:51:37;;;;;;;;;31.20;28.20;;;;;27.17;100.00;98787.13;7734817;22;96373;-66
2023/07/17 01:54:43;;;;;;;;;29.60;27.00;;;;;27.15;100.00;98781.91;7736175;22;96403;-67
2023/07/17 01:57:46;;;;;;;;;29.60;28.60;;;;;27.12;100.00;98793.66;7736026;22;96489;-67
2023/07/17 02:00:53;;;;;;;;;32.25;29.00;;;;;27.12;100.00;98804.75;7733609;22;96708;-66
2023/07/17 02:03:56;;;;;;;;;30.40;29.00;;;;;27.09;100.00;98797.09;7735432;22;96454;-66
2023/07/17 02:07:03;;;;;;;;;29.25;29.25;;;;;27.10;100.00;98801.47;7708251;22;96542;-67
2023/07/17 02:10:08;;;;;;;;;32.60;30.00;;;;;27.04;100.00;98800.84;7683777;22;99421;-67
2023/07/17 02:13:12;;;;;;;;;32.00;30.00;;;;;27.00;100.00;98807.38;7709661;22;96769;-66
2023/07/17 02:16:15;;;;;;;;;35.00;30.00;;;;;26.94;100.00;98817.81;7734704;22;96418;-66
2023/07/17 02:19:19;;;;;;;;;35.20;32.00;;;;;26.88;100.00;98830.19;7706276;22;96585;-66
2023/07/17 02:22:22;;;;;;;;;30.00;27.00;;;;;26.82;100.00;98837.03;7706883;22;98314;-66
2023/07/17 02:25:26;;;;;;;;;27.25;26.25;;;;;26.78;100.00;98838.81;7707599;22;96865;-66
2023/07/17 02:28:30;;;;;;;;;29.40;29.40;;;;;26.79;100.00;98840.44;7733759;22;96806;-66
2023/07/17 02:31:33;;;;;;;;;29.75;26.75;;;;;26.81;100.00;98826.28;7734051;22;96639;-66
2023/07/17 02:34:36;;;;;;;;;30.00;29.00;;;;;26.81;100.00;98820.75;7735339;22;96696;-66
2023/07/17 02:37:40;;;;;;;;;32.20;30.80;;;;;26.83;100.00;98824.03;7735798;22;96266;-66
2023/07/17 02:40:53;;;;;;;;;31.00;29.00;;;;;26.85;100.00;98824.47;7733132;22;98000;-66
2023/07/17 02:44:00;;;;;;;;;29.00;28.00;;;;;26.85;100.00;98827.25;7682642;22;96505;-67
2023/07/17 02:47:05;;;;;;;;;32.00;29.00;;;;;26.83;100.00;98824.03;7733268;22;97519;-66
2023/07/17 02:50:10;;;;;;;;;28.20;27.00;;;;;26.84;100.00;98825.63;7682979;22;97499;-66
2023/07/17 02:53:14;;;;;;;;;28.40;28.00;;;;;26.85;100.00;98832.78;7707399;22;96345;-67
2023/07/17 02:56:19;;;;;;;;;33.20;29.80;;;;;26.86;100.00;98826.97;7736854;22;96536;-67
2023/07/17 02:59:22;;;;;;;;;31.20;29.80;;;;;26.88;100.00;98827.41;7709114;22;99191;-67
2023/07/17 03:02:26;;;;;;;;;30.80;28.80;;;;;26.92;100.00;98833.13;7706377;22;97142;-67
2023/07/17 03:05:29;;;;;;;;;32.00;29.75;;;;;27.00;100.00;98840.59;7707941;22;98352;-66
2023/07/17 03:08:34;;;;;;;;;32.20;29.80;;;;;27.05;100.00;98840.41;7735891;22;96346;-66
2023/07/17 03:11:38;;;;;;;;;29.00;27.00;;;;;27.10;100.00;98837.44;7682968;22;96976;-66
2023/07/17 03:14:42;;;;;;;;;31.20;28.20;;;;;27.12;100.00;98826.88;7735532;22;96443;-67
2023/07/17 03:17:45;;;;;;;;;31.75;30.00;;;;;27.03;100.00;98807.53;7734239;22;96410;-67
2023/07/17 03:20:49;;;;;;;;;29.00;28.00;;;;;26.99;100.00;98811.28;7708312;22;100006;-67
2023/07/17 03:23:52;;;;;;;;;30.00;30.00;;;;;26.92;100.00;98813.75;7708424;22;96969;-67
2023/07/17 03:26:58;;;;;;;;;30.00;28.40;;;;;26.90;100.00;98810.50;7682246;22;98395;-67
2023/07/17 03:30:02;;;;;;;;;32.00;29.80;;;;;26.85;100.00;98814.22;7682168;22;96798;-67
2023/07/17 03:33:07;;;;;;;;;31.60;29.00;;;;;26.86;100.00;98823.34;7682793;22;96808;-67
2023/07/17 03:36:10;;;;;;;;;33.20;30.00;;;;;26.78;100.00;98816.69;7733726;22;96839;-67
2023/07/17 03:39:14;;;;;;;;;29.75;29.50;;;;;26.91;100.00;98829.56;7733225;22;96504;-66
2023/07/17 03:42:18;;;;;;;;;32.40;30.00;;;;;26.96;100.00;98823.03;7707413;22;96972;-67
2023/07/17 03:45:22;;;;;;;;;28.80;28.00;;;;;26.98;100.00;98826.25;7706327;22;96756;-67
2023/07/17 03:48:25;;;;;;;;;28.00;27.00;;;;;27.02;100.00;98827.25;7732255;22;96282;-66
2023/07/17 03:51:30;;;;;;;;;32.60;30.00;;;;;27.07;100.00;98835.34;7732730;22;96484;-67
2023/07/17 03:54:33;;;;;;;;;28.20;26.80;;;;;27.13;100.00;98839.53;7705192;22;96957;-67
2023/07/17 03:57:38;;;;;;;;;31.60;29.00;;;;;27.09;100.00;98844.13;7732664;22;96984;-67
2023/07/17 04:00:41;;;;;;;;;30.60;29.00;;;;;27.09;100.00;98841.34;7706467;22;96492;-67
2023/07/17 04:03:45;;;;;;;;;29.25;27.25;;;;;27.07;100.00;98846.44;7709095;22;96775;-67
2023/07/17 04:06:50;;;;;;;;;31.40;30.00;;;;;27.14;100.00;98846.72;7735238;22;98615;-67
2023/07/17 04:09:54;;;;;;;;;28.60;27.60;;;;;27.20;100.00;98834.31;7735417;22;96903;-66
2023/07/17 04:12:58;;;;;;;;;28.50;26.50;;;;;27.30;100.00;98833.94;7735488;22;96765;-67
2023/07/17 04:16:04;;;;;;;;;32.20;29.20;;;;;27.42;100.00;98831.28;7708827;22;96612;-67
2023/07/17 04:19:07;;;;;;;;;27.60;26.00;;;;;27.47;100.00;98817.25;7706011;22;96549;-67
2023/07/17 04:22:11;;;;;;;;;28.00;26.40;;;;;27.67;100.00;98840.63;7681576;22;98552;-67
2023/07/17 04:25:14;;;;;;;;;27.80;26.20;;;;;27.71;100.00;98849.09;7707245;22;96820;-66
2023/07/17 04:28:19;;;;;;;;;27.20;26.00;;;;;27.80;100.00;98842.34;7733623;22;96832;-67
2023/07/17 04:31:26;;;;;;;;;27.40;26.00;;;;;27.87;100.00;98839.84;7679513;22;96886;-66
2023/07/17 04:34:30;;;;;;;;;24.40;23.00;;;;;27.98;100.00;98831.94;7735074;22;97538;-67
2023/07/17 04:37:34;;;;;;;;;27.40;25.00;;;;;28.01;100.00;98834.03;7682086;22;98381;-67
2023/07/17 04:40:38;;;;;;;;;26.00;24.00;;;;;28.04;100.00;98830.59;7733579;22;96272;-67
2023/07/17 04:43:44;;;;;;;;;28.00;25.00;;;;;28.04;100.00;98821.47;7734170;22;96514;-67
2023/07/17 04:46:48;;;;;;;;;26.50;26.00;;;;;28.08;100.00;98823.22;7735897;22;96512;-67
2023/07/17 04:49:53;;;;;;;;;24.00;23.00;;;;;28.16;100.00;98813.22;7707479;22;96705;-66
2023/07/17 04:52:59;;;;;;;;;25.00;24.00;;;;;28.25;100.00;98812.00;7736180;22;96313;-67
2023/07/17 04:56:05;;;;;;;;;24.00;23.60;;;;;28.38;100.00;98807.34;7710706;22;96294;-67
2023/07/17 04:59:10;;;;;;;;;26.00;24.00;;;;;28.43;100.00;98818.22;7709280;22;96337;-67
2023/07/17 05:02:13;;;;;;;;;28.60;27.60;;;;;28.53;100.00;98815.03;7736061;22;96340;-67
2023/07/17 05:05:18;;;;;;;;;27.00;26.00;;;;;28.67;100.00;98818.31;7734159;22;96460;-67
2023/07/17 05:08:21;;;;;;;;;27.60;27.20;;;;;28.83;100.00;98821.25;7682867;22;98330;-67
2023/07/17 05:11:25;;;;;;;;;23.00;22.00;;;;;28.92;100.00;98805.31;7735385;22;96447;-67
2023/07/17 05:14:29;;;;;;;;;24.00;22.00;;;;;29.06;100.00;98808.59;7682281;22;97018;-67
2023/07/17 05:17:33;;;;;;;;;24.00;23.00;;;;;29.09;100.00;98785.66;7709462;22;96998;-67
2023/07/17 05:20:36;;;;;;;;;17.60;17.60;;;;;29.34;100.00;98824.59;7734359;22;96419;-67
2023/07/17 05:23:40;;;;;;;;;24.00;22.00;;;;;29.41;100.00;98816.50;7706952;22;97020;-67
2023/07/17 05:26:44;;;;;;;;;22.00;21.00;;;;;29.62;100.00;98826.31;7706971;22;96820;-67
2023/07/17 05:29:49;;;;;;;;;21.00;19.00;;;;;29.74;100.00;98828.28;7683188;22;99045;-67
2023/07/17 05:32:53;;;;;;;;;24.40;22.40;;;;;29.86;100.00;98833.00;7710231;22;96433;-67
2023/07/17 05:35:56;;;;;;;;;23.00;22.00;;;;;29.98;100.00;98847.72;7736027;22;96553;-67
2023/07/17 05:39:03;;;;;;;;;23.60;22.60;;;;;30.04;100.00;98853.84;7736254;22;97054;-67
2023/07/17 05:42:07;;;;;;;;;26.00;25.00;;;;;30.08;100.00;98850.00;7736253;22;96349;-68
2023/07/17 05:45:12;;;;;;;;;28.40;24.80;;;;;30.06;100.00;98855.09;7683561;22;96718;-67
2023/07/17 05:48:16;;;;;;;;;26.50;25.00;;;;;30.07;100.00;98856.72;7709565;22;98391;-67
2023/07/17 05:51:20;;;;;;;;;26.00;24.60;;;;;30.02;100.00;98862.53;7709812;22;97051;-68
2023/07/17 05:54:24;;;;;;;;;26.20;24.00;;;;;30.07;100.00;98870.63;7708693;22;97772;-67
2023/07/17 05:57:28;;;;;;;;;24.80;23.80;;;;;30.04;100.00;98882.47;7707905;22;96809;-67
2023/07/17 06:00:32;;;;;;;;;24.00;23.00;;;;;29.98;100.00;98888.59;7735377;22;96380;-69
2023/07/17 06:03:35;;;;;;;;;24.00;22.75;;;;;29.99;100.00;98906.91;7736316;22;96298;-68
2023/07/17 06:06:39;;;;;;;;;22.00;22.00;;;;;29.93;100.00;98975.81;7736715;22;96365;-67
2023/07/17 06:09:42;;;;;;;;;25.00;23.00;;;;;29.64;100.00;99001.00;7709684;22;98415;-67
2023/07/17 06:12:45;;;;;;;;;18.00;17.00;;;;;29.44;100.00;98993.56;7704708;22;98439;-68
2023/07/17 06:15:51;;;;;;;;;14.60;14.00;;;;;29.15;100.00;98986.97;7732255;22;96569;-67
2023/07/17 06:18:54;;;;;;;;;14.00;12.00;;;;;28.91;100.00;98984.09;7734508;22;96245;-68
2023/07/17 06:21:57;;;;;;;;;10.00;9.60;;;;;28.83;100.00;98971.13;7706486;22;97573;-67
2023/07/17 06:25:01;;;;;;;;;9.40;9.00;;;;;28.80;100.00;98966.22;7706730;22;97382;-68
2023/07/17 06:28:05;;;;;;;;;11.00;11.00;;;;;28.71;100.00;98987.66;7733878;22;96215;-67
2023/07/17 06:31:09;;;;;;;;;9.00;9.00;;;;;28.59;100.00;99002.25;7736920;22;96631;-68
2023/07/17 06:34:12;;;;;;;;;6.00;5.40;;;;;28.63;100.00;99011.56;7709599;22;97900;-68
2023/07/17 06:37:16;;;;;;;;;6.25;6.00;;;;;28.63;100.00;99008.78;7737097;22;97534;-68
2023/07/17 06:40:19;;;;;;;;;7.00;6.00;;;;;28.61;100.00;99011.06;7737229;22;97674;-68
2023/07/17 06:43:22;;;;;;;;;6.00;5.50;;;;;28.61;100.00;99004.69;7736692;22;96280;-68
2023/07/17 06:46:27;;;;;;;;;4.80;4.80;;;;;28.58;100.00;98997.06;7682418;22;98146;-67
2023/07/17 06:49:30;;;;;;;;;4.00;4.00;;;;;28.65;100.00;99000.09;7737556;22;96526;-67
2023/07/17 06:52:33;;;;;;;;;5.00;5.00;;;;;28.84;100.00;98994.91;7735492;22;96900;-67
2023/07/17 06:55:37;;;;;;;;;5.40;4.60;;;;;29.06;100.00;99002.91;7709045;22;96572;-68
2023/07/17 06:58:40;;;;;;;;;3.60;3.00;;;;;29.17;100.00;99006.06;7737448;22;96860;-68
2023/07/17 07:01:45;;;;;;;;;4.60;4.40;;;;;29.33;100.00;98995.94;7735648;22;96313;-68
2023/07/17 07:04:48;;;;;;;;;4.60;4.60;;;;;29.38;100.00;98987.41;7709930;22;96276;-68
2023/07/17 07:07:52;;;;;;;;;4.80;4.00;;;;;29.52;100.00;98996.22;7710688;22;99198;-68
2023/07/17 07:10:57;;;;;;;;;4.00;4.00;;;;;29.66;100.00;99007.03;7709226;22;98504;-68
2023/07/17 07:14:00;;;;;;;;;5.00;4.00;;;;;29.81;100.00;99005.56;7736049;22;96443;-68
2023/07/17 07:17:05;;;;;;;;;5.00;4.75;;;;;29.87;100.00;99002.19;7708594;22;96630;-67
2023/07/17 07:20:09;;;;;;;;;4.25;4.25;;;;;29.99;100.00;98990.31;7737220;22;96596;-68
2023/07/17 07:23:13;;;;;;;;;5.00;4.00;;;;;30.05;100.00;98991.72;7736098;22;96385;-68
2023/07/17 07:26:16;;;;;;;;;3.00;3.00;;;;;30.14;100.00;98989.63;7707618;22;98414;-69
2023/07/17 07:29:20;;;;;;;;;4.00;3.60;;;;;30.13;100.00;98979.66;7735441;22;96263;-69
2023/07/17 07:32:24;;;;;;;;;2.00;2.00;;;;;30.11;100.00;98979.97;7737474;22;97951;-69
2023/07/17 07:35:28;;;;;;;;;2.00;2.00;;;;;30.11;100.00;98977.19;7735281;22;96643;-68
2023/07/17 07:38:31;;;;;;;;;4.00;4.00;;;;;30.17;100.00;98990.88;7734201;22;97112;-69
2023/07/17 07:41:37;;;;;;;;;3.00;3.00;;;;;29.96;100.00;98966.78;7737883;22;96276;-68
2023/07/17 07:44:40;;;;;;;;;2.00;2.00;;;;;29.81;100.00;98981.31;7709596;22;97290;-69
2023/07/17 07:47:45;;;;;;;;;3.00;2.40;;;;;29.43;100.00;98978.84;7737755;22;96288;-69
2023/07/17 07:50:49;;;;;;;;;3.00;3.00;;;;;29.20;100.00;98978.41;7737451;22;96560;-68
2023/07/17 07:53:52;;;;;;;;;4.00;4.00;;;;;29.12;100.00;98984.88;7734889;22;97165;-69
2023/07/17 07:56:55;;;;;;;;;1.00;1.00;;;;;29.07;100.00;98987.88;7733992;22;96264;-68
2023/07/17 07:59:58;;;;;;;;;4.00;3.00;;;;;28.86;100.00;98981.53;7736347;22;96298;-68
2023/07/17 08:03:03;;;;;;;;;3.00;3.00;;;;;28.68;100.00;98975.28;7707986;22;98514;-68
2023/07/17 08:06:06;;;;;;;;;4.25;4.25;;;;;28.58;100.00;98978.47;7708495;22;98818;-68
2023/07/17 08:09:10;;;;;;;;;3.00;3.00;;;;;28.41;100.00;98973.03;7708001;22;98339;-68
2023/07/17 08:12:13;;;;;;;;;4.00;4.00;;;;;28.34;100.00;98970.81;7707617;22;96611;-68
2023/07/17 08:15:16;;;;;;;;;5.00;4.20;;;;;28.21;100.00;98977.41;7707861;22;96720;-68
2023/07/17 08:18:21;;;;;;;;;4.00;4.00;;;;;27.82;100.00;98970.25;7735979;22;96213;-68
2023/07/17 08:21:24;;;;;;;;;3.80;3.80;;;;;27.67;100.00;98958.91;7705991;22;98815;-67
2023/07/17 08:24:27;;;;;;;;;5.00;5.00;;;;;27.80;100.00;98974.50;7734047;22;96349;-68
2023/07/17 08:27:30;;;;;;;;;5.00;5.00;;;;;27.89;100.00;98972.50;7705381;22;97108;-68
2023/07/17 08:30:33;;;;;;;;;5.00;5.00;;;;;27.73;100.00;98969.47;7734504;22;96649;-68
2023/07/17 08:33:38;;;;;;;;;3.60;3.60;;;;;27.57;100.00;98951.78;7734948;22;96233;-67
2023/07/17 08:36:41;;;;;;;;;3.00;3.00;;;;;27.15;100.00;98956.28;7708970;22;96623;-68
2023/07/17 08:39:45;;;;;;;;;3.60;3.60;;;;;27.34;100.00;98956.72;7736301;22;96663;-67
2023/07/17 08:42:53;;;;;;;;;3.00;3.00;;;;;27.22;100.00;98961.31;7708330;22;96898;-68
2023/07/17 08:45:57;;;;;;;;;3.00;3.00;;;;;27.29;100.00;98956.91;7737318;22;96904;-67
2023/07/17 08:49:06;;;;;;;;;3.40;3.40;;;;;27.42;100.00;98961.41;7737855;22;96802;-67
2023/07/17 08:52:11;;;;;;;;;4.00;3.00;;;;;27.58;100.00;98950.63;7685517;22;96661;-67
2023/07/17 08:55:15;;;;;;;;;2.00;2.00;;;;;27.78;100.00;98941.59;7737904;22;98052;-68
2023/07/17 08:58:20;;;;;;;;;3.00;2.75;;;;;27.96;100.00;98951.44;7738101;22;96381;-68
2023/07/17 09:01:23;;;;;;;;;1.60;1.60;;;;;28.18;100.00;98941.22;7710255;22;98413;-68
2023/07/17 09:04:30;;;;;;;;;3.00;3.00;;;;;28.48;100.00;98953.09;7734802;22;96276;-67
2023/07/17 09:07:34;;;;;;;;;3.00;2.80;;;;;28.64;100.00;98954.09;7737293;22;96344;-68
2023/07/17 09:10:38;;;;;;;;;3.00;3.00;;;;;28.78;100.00;98957.44;7737756;22;96392;-68
2023/07/17 09:13:43;;;;;;;;;2.50;2.50;;;;;29.07;100.00;98946.22;7737749;22;97549;-68
2023/07/17 09:16:48;;;;;;;;;4.40;3.00;;;;;29.24;100.00;98948.81;7738332;22;96424;-68
2023/07/17 09:19:54;;;;;;;;;2.00;2.00;;;;;29.26;100.00;98932.63;7708173;22;98186;-68
2023/07/17 09:23:01;;;;;;;;;2.00;1.00;;;;;29.00;100.00;98920.16;7737074;22;96569;-68
2023/07/17 09:26:05;;;;;;;;;1.75;1.75;;;;;29.16;100.00;98949.72;7736922;22;96539;-68
2023/07/17 09:29:08;;;;;;;;;3.00;3.00;;;;;29.28;100.00;98952.50;7736176;22;97127;-68
2023/07/17 09:32:18;;;;;;;;;2.00;2.00;;;;;29.44;100.00;98941.59;7709710;22;96606;-68
2023/07/17 09:35:24;;;;;;;;;2.50;2.50;;;;;29.56;100.00;98949.97;7737142;22;97469;-68
2023/07/17 09:38:28;;;;;;;;;4.00;4.00;;;;;29.67;100.00;98947.50;7735395;22;96472;-68
2023/07/17 09:41:31;;;;;;;;;3.60;3.00;;;;;29.87;100.00;98946.59;7736349;22;96514;-68
2023/07/17 09:44:35;;;;;;;;;3.25;3.25;;;;;29.99;100.00;98937.50;7735562;22;96464;-68
2023/07/17 09:47:38;;;;;;;;;4.60;3.00;;;;;30.12;100.00;98931.56;7710254;22;96284;-68
2023/07/17 09:50:43;;;;;;;;;3.60;3.00;;;;;30.33;100.00;98938.94;7738117;22;96694;-68
2023/07/17 09:53:48;;;;;;;;;4.00;4.00;;;;;30.56;100.00;98937.28;7683292;22;97171;-69
2023/07/17 09:56:54;;;;;;;;;3.60;3.60;;;;;30.87;100.00;98934.63;7707810;22;98494;-68
2023/07/17 10:00:02;;;;;;;;;2.20;2.00;;;;;31.15;100.00;98923.50;7737333;22;96332;-68
2023/07/17 10:03:09;;;;;;;;;5.60;5.60;;;;;31.44;100.00;98893.59;7736805;22;96376;-68
2023/07/17 10:06:16;;;;;;;;;3.00;3.00;;;;;31.98;100.00;98907.69;7684454;22;96581;-68
2023/07/17 10:09:22;;;;;;;;;2.00;2.00;;;;;32.20;100.00;98907.06;7737258;22;96583;-68
2023/07/17 10:12:25;;;;;;;;;4.00;4.00;;;;;32.27;100.00;98887.66;7685630;22;96682;-68
2023/07/17 10:15:30;;;;;;;;;5.00;4.60;;;;;32.60;100.00;98890.75;7735169;22;96355;-68
2023/07/17 10:18:33;;;;;;;;;5.60;5.00;;;;;32.97;100.00;98899.53;7736031;22;96823;-68
2023/07/17 10:21:53;;;;;;;;;4.40;4.00;;;;;33.21;100.00;98890.00;7707086;22;96729;-68
2023/07/17 10:24:56;;;;;;;;;5.00;5.00;;;;;33.26;100.00;98883.31;7706070;22;96931;-68
2023/07/17 10:28:02;;;;;;;;;6.00;6.00;;;;;33.40;100.00;98870.38;7736697;22;96560;-68
2023/07/17 10:31:10;;;;;;;;;2.75;2.75;;;;;33.73;100.00;98883.72;7710287;22;98508;-68
2023/07/17 10:34:13;;;;;;;;;3.75;3.75;;;;;33.73;100.00;98871.75;7737494;22;96279;-68
2023/07/17 10:37:40;;;;;;;;;3.00;3.00;;;;;33.63;100.00;98864.75;7707641;22;98886;-68
2023/07/17 10:40:43;;;;;;;;;4.00;4.00;;;;;33.93;100.00;98870.47;7709665;22;96682;-69
2023/07/17 10:43:51;;;;;;;;;5.00;4.80;;;;;34.25;100.00;98874.56;7737276;22;96746;-69
2023/07/17 10:47:00;;;;;;;;;6.00;6.00;;;;;34.55;100.00;98870.94;7736359;22;96379;-69
2023/07/17 10:50:04;;;;;;;;;4.00;4.00;;;;;34.60;100.00;98870.59;7736728;22;96874;-68
2023/07/17 10:53:09;;;;;;;;;4.00;3.00;;;;;34.62;100.00;98871.00;7736338;22;96372;-68
2023/07/17 10:56:13;;;;;;;;;5.00;5.00;;;;;34.34;100.00;98871.47;7683777;22;96665;-68
2023/07/17 10:59:19;;;;;;;;;4.00;3.00;;;;;34.15;100.00;98866.78;7736088;22;97032;-68
2023/07/17 11:02:25;;;;;;;;;4.00;3.50;;;;;33.88;100.00;98857.59;7736893;22;96523;-68
2023/07/17 11:05:28;;;;;;;;;3.40;3.40;;;;;33.79;100.00;98873.03;7709968;22;96304;-68
2023/07/17 11:08:33;;;;;;;;;5.00;4.00;;;;;33.65;100.00;98875.59;7709486;22;98358;-67
2023/07/17 11:11:36;;;;;;;;;6.00;5.25;;;;;33.44;100.00;98860.06;7735356;22;96234;-68
2023/07/17 11:14:40;;;;;;;;;4.00;4.00;;;;;33.13;100.00;98860.31;7737203;22;96281;-68
2023/07/17 11:17:43;;;;;;;;;4.75;4.75;;;;;32.90;100.00;98857.47;7709934;22;96486;-68
2023/07/17 11:20:46;;;;;;;;;4.00;4.00;;;;;32.77;100.00;98864.41;7709346;22;96704;-68
2023/07/17 11:23:53;;;;;;;;;3.00;3.00;;;;;32.33;100.00;98833.19;7710252;22;97084;-68
2023/07/17 11:26:58;;;;;;;;;4.80;4.80;;;;;32.00;100.00;98835.63;7736306;22;96790;-68
2023/07/17 11:30:01;;;;;;;;;3.25;3.25;;;;;31.85;100.00;98839.28;7709154;22;96506;-68
2023/07/17 11:33:07;;;;;;;;;3.20;3.00;;;;;31.62;100.00;98834.38;7737693;22;96417;-68
2023/07/17 11:36:16;;;;;;;;;5.00;4.00;;;;;31.56;100.00;98846.13;7737997;22;96459;-66
2023/07/17 11:39:23;;;;;;;;;3.80;3.80;;;;;31.43;100.00;98850.97;7711655;22;96959;-65
2023/07/17 11:42:26;;;;;;;;;7.00;6.40;;;;;31.30;100.00;98860.59;7685316;22;96834;-66
2023/07/17 11:45:31;;;;;;;;;6.00;6.00;;;;;31.13;100.00;98858.19;7711791;22;96737;-66
2023/07/17 11:48:41;;;;;;;;;5.00;5.00;;;;;30.97;100.00;98866.50;7740270;22;96435;-65
2023/07/17 11:51:44;;;;;;;;;7.60;6.00;;;;;30.77;100.00;98898.13;7710472;22;96996;-65
2023/07/17 11:54:57;;;;;;;;;6.00;5.50;;;;;30.62;100.00;98896.94;7738730;22;96355;-65
2023/07/17 11:58:00;;;;;;;;;7.00;6.00;;;;;30.46;100.00;98890.47;7708201;22;96712;-65
2023/07/17 12:01:07;;;;;;;;;8.80;8.00;;;;;30.29;100.00;98913.00;7737223;22;96368;-67
2023/07/17 12:04:18;;;;;;;;;6.00;5.60;;;;;30.07;100.00;98923.44;7735706;22;96401;-65
2023/07/17 12:07:21;;;;;;;;;5.00;5.00;;;;;29.83;100.00;98905.94;7685475;22;98846;-65
2023/07/17 12:10:26;;;;;;;;;5.00;5.00;;;;;29.48;100.00;98891.72;7739425;22;97136;-65
2023/07/17 12:13:29;;;;;;;;;5.40;5.00;;;;;29.31;100.00;98909.41;7738948;22;96250;-66
2023/07/17 12:16:33;;;;;;;;;6.00;5.00;;;;;29.00;100.00;98887.66;7735320;22;96604;-66
2023/07/17 12:19:36;;;;;;;;;5.00;5.00;;;;;28.72;100.00;98911.63;7709157;22;98647;-66
2023/07/17 12:22:39;;;;;;;;;6.80;6.40;;;;;28.46;100.00;98908.22;7736317;22;96219;-66
2023/07/17 12:25:45;;;;;;;;;4.80;4.00;;;;;28.21;100.00;98905.31;7736877;22;96178;-66
2023/07/17 12:28:48;;;;;;;;;7.40;7.00;;;;;27.98;100.00;98909.53;7707819;22;96775;-66
2023/07/17 12:31:52;;;;;;;;;4.00;4.00;;;;;27.82;100.00;98925.09;7738220;22;96338;-66
2023/07/17 12:34:55;;;;;;;;;5.00;5.00;;;;;27.64;100.00;98942.97;7738412;22;96285;-65
2023/07/17 12:37:58;;;;;;;;;5.25;5.00;;;;;27.40;100.00;98960.13;7736017;22;96542;-65
2023/07/17 12:41:03;;;;;;;;;7.20;6.80;;;;;27.26;100.00;98956.75;7738183;22;96518;-65
2023/07/17 12:44:06;;;;;;;;;6.00;5.00;;;;;26.96;100.00;98945.56;7733996;22;96594;-66
2023/07/17 12:47:09;;;;;;;;;7.00;7.00;;;;;26.79;100.00;98928.94;7709708;22;96620;-65
2023/07/17 12:50:12;;;;;;;;;7.00;7.00;;;;;26.69;100.00;98909.94;7709533;22;98391;-65
2023/07/17 12:53:15;;;;;;;;;7.20;7.00;;;;;26.39;100.00;98917.25;7711172;22;96371;-65
2023/07/17 12:56:20;;;;;;;;;7.00;7.00;;;;;26.27;100.00;98920.69;7710455;22;96938;-65
2023/07/17 12:59:29;;;;;;;;;8.60;7.60;;;;;26.10;100.00;98919.78;7711066;22;97033;-66
2023/07/17 13:02:33;;;;;;;;;8.00;6.60;;;;;25.98;100.00;98930.69;7711091;22;96526;-64
2023/07/17 13:05:37;;;;;;;;;6.25;6.00;;;;;25.99;100.00;98935.06;7737761;22;96555;-65
2023/07/17 13:08:40;;;;;;;;;7.60;6.00;;;;;25.98;100.00;98966.59;7684756;22;96660;-65
2023/07/17 13:11:45;;;;;;;;;6.33;6.33;;;;;25.77;100.00;99036.22;7736877;22;96859;-66
2023/07/17 13:14:48;;;;;;;;;7.00;7.00;;;;;25.47;100.00;99097.72;7707864;22;98342;-65
2023/07/17 13:17:51;;;;;;;;;8.00;8.00;;;;;25.30;100.00;99122.44;7736441;22;96275;-64
2023/07/17 13:20:55;;;;;;;;;7.00;7.00;;;;;25.16;100.00;99133.53;7737636;22;97436;-65
2023/07/17 13:23:58;;;;;;;;;7.75;6.75;;;;;25.09;100.00;99162.66;7736440;22;96417;-65
2023/07/17 13:27:03;;;;;;;;;7.00;6.60;;;;;24.87;100.00;99168.94;7709040;22;96334;-64
2023/07/17 13:30:08;;;;;;;;;5.00;5.00;;;;;24.70;100.00;99172.28;7684569;22;98522;-65
2023/07/17 13:33:11;;;;;;;;;5.00;5.00;;;;;24.51;100.00;99144.84;7738045;22;96322;-65
2023/07/17 13:36:14;;;;;;;;;7.00;6.20;;;;;24.47;100.00;99123.72;7737961;22;96805;-65
2023/07/17 13:39:18;;;;;;;;;5.00;4.00;;;;;24.36;100.00;99116.75;7709676;22;96760;-65
2023/07/17 13:42:22;;;;;;;;;4.00;4.00;;;;;24.27;100.00;99104.81;7737807;22;96345;-64
2023/07/17 13:45:26;;;;;;;;;7.00;5.60;;;;;24.17;100.00;99094.81;7736489;22;97233;-64
2023/07/17 13:48:29;;;;;;;;;8.00;7.25;;;;;24.24;100.00;99086.94;7710420;22;96659;-64
2023/07/17 13:51:32;;;;;;;;;8.00;7.00;;;;;24.28;100.00;99087.19;7736016;22;96336;-64
2023/07/17 13:54:36;;;;;;;;;6.00;6.00;;;;;24.28;100.00;99068.72;7709305;22;97301;-64
2023/07/17 13:57:40;;;;;;;;;8.00;6.80;;;;;24.37;100.00;99053.09;7708072;22;98396;-64
2023/07/17 14:00:43;;;;;;;;;6.60;6.00;;;;;24.36;100.00;99039.59;7736135;22;96895;-64
2023/07/17 14:03:47;;;;;;;;;6.00;5.00;;;;;24.35;100.00;99024.19;7708458;22;96664;-64
2023/07/17 14:06:50;;;;;;;;;6.00;6.00;;;;;24.31;100.00;98999.19;7734975;22;96913;-64